Time;durP1;ratioP1;P1;durP2;ratioP2;P2;SDS_P1;SDS_P2;PMS_P1;PMS_P2;Temp;Humidity;BMP_temperature;BMP_pressure;BME280_temperature;BME280_humidity;BME280_pressure;Samples;Min_cycle;Max_cycle;Signal;HPM_P1;HPM_P2
2023/04/10 00:00:31;;;;;;;35.25;20.83;;;6.70;99.90;;;;;;4889609;29;20051;-79
2023/04/10 00:03:02;;;;;;;36.70;19.92;;;6.80;99.90;;;;;;4878169;29;20045;-79
2023/04/10 00:05:29;;;;;;;35.65;20.50;;;6.70;99.90;;;;;;4896186;29;20042;-79
2023/04/10 00:07:56;;;;;;;34.60;20.33;;;6.70;99.90;;;;;;4863052;29;20133;-79
2023/04/10 00:10:25;;;;;;;34.85;21.02;;;6.80;99.90;;;;;;4878073;29;20165;-79
2023/04/10 00:12:52;;;;;;;36.67;21.70;;;6.70;99.90;;;;;;4864721;29;20038;-79
2023/04/10 00:15:19;;;;;;;40.47;22.75;;;6.70;99.90;;;;;;4864563;29;20052;-79
2023/04/10 00:17:46;;;;;;;42.17;23.30;;;6.70;99.90;;;;;;4894744;29;20045;-79
2023/04/10 00:20:12;;;;;;;36.22;20.98;;;6.90;99.90;;;;;;4863941;29;20133;-79
2023/04/10 00:22:40;;;;;;;42.08;23.23;;;6.80;99.90;;;;;;4864358;29;20479;-79
2023/04/10 00:25:07;;;;;;;37.67;20.90;;;6.80;99.90;;;;;;4864134;29;20042;-79
2023/04/10 00:27:34;;;;;;;43.58;23.40;;;6.70;99.90;;;;;;4879649;29;20046;-79
2023/04/10 00:30:01;;;;;;;41.03;22.77;;;6.70;99.90;;;;;;4860356;29;20098;-79
2023/04/10 00:32:28;;;;;;;41.78;22.52;;;6.70;99.90;;;;;;4860589;29;20052;-79
2023/04/10 00:34:54;;;;;;;39.28;22.58;;;6.60;99.90;;;;;;4860612;29;20518;-79
2023/04/10 00:37:21;;;;;;;44.03;22.73;;;6.80;99.90;;;;;;4860796;29;20042;-79
2023/04/10 00:39:48;;;;;;;38.67;23.15;;;6.70;99.90;;;;;;4875925;29;20108;-79
2023/04/10 00:42:15;;;;;;;39.78;23.38;;;6.60;99.90;;;;;;4869940;29;20046;-79
2023/04/10 00:44:41;;;;;;;41.88;23.80;;;6.60;99.90;;;;;;4845491;29;20049;-79
2023/04/10 00:47:10;;;;;;;39.95;24.48;;;6.60;99.90;;;;;;4845242;29;20161;-79
2023/04/10 00:49:37;;;;;;;39.00;22.90;;;6.60;99.90;;;;;;4845784;29;20078;-79
2023/04/10 00:52:04;;;;;;;39.00;23.27;;;6.60;99.90;;;;;;4830220;29;20081;-79
2023/04/10 00:54:31;;;;;;;41.15;22.85;;;6.60;99.90;;;;;;4852465;29;20411;-78
2023/04/10 00:56:58;;;;;;;43.42;24.20;;;6.60;99.90;;;;;;4875372;29;20167;-79
2023/04/10 00:59:25;;;;;;;44.30;23.95;;;6.60;99.90;;;;;;4860526;29;20045;-79
2023/04/10 01:01:51;;;;;;;39.53;23.33;;;6.50;99.90;;;;;;4860373;29;20049;-79
2023/04/10 01:04:18;;;;;;;43.08;23.75;;;6.50;99.90;;;;;;4875502;29;20053;-79
2023/04/10 01:06:54;;;;;;;44.75;24.48;;;6.40;99.90;;;;;;4863983;29;20041;-79
2023/04/10 01:09:33;;;;;;;;;;;6.40;99.90;;;;;;4894404;29;20069;-79
2023/04/10 01:12:11;;;;;;;43.28;24.98;;;6.30;99.90;;;;;;4894023;29;19919;-79
2023/04/10 01:15:00;;;;;;;43.22;24.67;;;6.30;99.90;;;;;;4878543;29;20128;-79
2023/04/10 01:17:32;;;;;;;45.08;24.15;;;6.30;99.90;;;;;;4878652;29;20041;-79
2023/04/10 01:20:13;;;;;;;43.45;23.80;;;6.20;99.90;;;;;;4878477;29;20108;-78
2023/04/10 01:23:01;;;;;;;41.58;24.25;;;6.20;99.90;;;;;;4893029;29;20049;-79
2023/04/10 01:25:52;;;;;;;43.65;24.23;;;6.10;99.90;;;;;;4878526;29;20084;-79
2023/04/10 01:28:19;;;;;;;40.85;24.17;;;6.10;99.90;;;;;;4878137;29;20050;-79
2023/04/10 01:30:49;;;;;;;42.30;24.63;;;6.10;99.90;;;;;;4878364;29;20525;-79
2023/04/10 01:33:21;;;;;;;44.83;23.33;;;6.10;99.90;;;;;;4877939;29;20474;-79
2023/04/10 01:35:57;;;;;;;40.88;24.25;;;6.00;99.90;;;;;;4878319;29;20080;-79
2023/04/10 01:38:27;;;;;;;44.40;25.65;;;6.10;99.90;;;;;;4877985;29;20416;-79
2023/04/10 01:40:54;;;;;;;43.92;24.92;;;6.00;99.90;;;;;;4878145;29;20049;-78
2023/04/10 01:43:24;;;;;;;43.35;24.55;;;5.90;99.90;;;;;;4878198;29;20041;-79
2023/04/10 01:45:52;;;;;;;40.35;24.15;;;6.00;99.90;;;;;;4893509;29;20128;-79
2023/04/10 01:48:19;;;;;;;45.17;25.40;;;5.90;99.90;;;;;;4862867;29;20109;-79
2023/04/10 01:50:46;;;;;;;42.20;24.85;;;5.90;99.90;;;;;;4893452;29;20077;-79
2023/04/10 01:53:14;;;;;;;45.33;24.73;;;5.80;99.90;;;;;;4863010;29;20440;-79
2023/04/10 01:55:42;;;;;;;46.58;25.60;;;5.90;99.90;;;;;;4893705;29;20098;-79
2023/04/10 01:58:09;;;;;;;44.35;24.77;;;5.80;99.90;;;;;;4877839;29;20045;-79
2023/04/10 02:00:38;;;;;;;44.47;24.08;;;5.80;99.90;;;;;;4862728;29;20057;-79
2023/04/10 02:03:05;;;;;;;44.35;24.85;;;5.80;99.90;;;;;;4877374;29;20500;-79
2023/04/10 02:05:42;;;;;;;43.10;24.05;;;5.80;99.90;;;;;;4862481;29;20057;-79
2023/04/10 02:08:34;;;;;;;44.08;24.52;;;5.80;99.90;;;;;;4877143;29;20061;-79
2023/04/10 02:11:30;;;;;;;43.88;24.65;;;5.80;99.90;;;;;;4877874;29;20049;-79
2023/04/10 02:14:00;;;;;;;41.95;24.58;;;5.70;99.90;;;;;;4872756;29;20113;-79
2023/04/10 02:16:28;;;;;;;44.55;24.20;;;5.70;99.90;;;;;;4877398;29;20118;-79
2023/04/10 02:18:57;;;;;;;44.75;25.17;;;5.70;99.90;;;;;;4892815;29;20520;-79
2023/04/10 02:21:25;;;;;;;45.47;25.45;;;5.70;99.90;;;;;;4877116;29;20136;-79
2023/04/10 02:23:52;;;;;;;43.53;25.30;;;5.70;99.90;;;;;;4862938;29;20056;-79
2023/04/10 02:26:19;;;;;;;40.90;23.30;;;5.70;99.90;;;;;;4862300;29;20049;-79
2023/04/10 02:28:45;;;;;;;47.63;24.88;;;5.70;99.90;;;;;;4858949;29;20077;-79
2023/04/10 02:31:12;;;;;;;47.53;25.38;;;5.70;99.90;;;;;;4873700;29;20037;-79
2023/04/10 02:33:39;;;;;;;44.63;24.10;;;5.70;99.90;;;;;;4858663;29;20564;-79
2023/04/10 02:36:06;;;;;;;42.85;24.10;;;5.70;99.90;;;;;;4858959;29;20046;-79
2023/04/10 02:38:33;;;;;;;42.78;24.33;;;5.70;99.90;;;;;;4843472;29;20464;-79
2023/04/10 02:41:00;;;;;;;43.03;24.00;;;5.60;99.90;;;;;;4872743;29;20113;-79
2023/04/10 02:43:26;;;;;;;46.22;24.52;;;5.40;99.90;;;;;;4876804;29;20052;-79
2023/04/10 02:45:53;;;;;;;37.70;22.67;;;5.60;99.90;;;;;;4862180;29;20104;-79
2023/04/10 02:48:20;;;;;;;41.30;23.35;;;5.50;99.90;;;;;;4877004;29;20052;-79
2023/04/10 02:50:47;;;;;;;40.55;22.95;;;5.60;99.90;;;;;;4877154;29;20049;-79
2023/04/10 02:53:15;;;;;;;39.65;23.25;;;5.50;99.90;;;;;;4858337;29;20042;-79
2023/04/10 02:55:42;;;;;;;39.17;24.05;;;5.50;99.90;;;;;;4873670;29;20092;-79
2023/04/10 02:58:09;;;;;;;44.08;23.48;;;5.50;99.90;;;;;;4843345;29;20077;-79
2023/04/10 03:00:36;;;;;;;40.65;23.50;;;5.50;99.90;;;;;;4843201;29;20046;-78
2023/04/10 03:03:02;;;;;;;40.35;22.98;;;5.50;99.90;;;;;;4858470;29;20050;-79
2023/04/10 03:05:29;;;;;;;41.13;22.50;;;5.40;99.90;;;;;;4842976;29;20518;-79
2023/04/10 03:07:56;;;;;;;43.20;23.55;;;5.50;99.90;;;;;;4873383;29;20503;-79
2023/04/10 03:10:23;;;;;;;39.13;23.13;;;5.50;99.90;;;;;;4858489;29;20380;-79
2023/04/10 03:12:50;;;;;;;39.22;22.60;;;5.60;99.90;;;;;;4873454;29;20041;-78
2023/04/10 03:15:17;;;;;;;43.63;24.30;;;5.50;99.90;;;;;;4858759;29;20038;-79
2023/04/10 03:17:43;;;;;;;41.05;24.33;;;5.40;99.90;;;;;;4883760;29;20121;-79
2023/04/10 03:20:10;;;;;;;43.40;22.13;;;5.70;99.90;;;;;;4876611;29;20545;-79
2023/04/10 03:22:38;;;;;;;40.53;22.58;;;5.30;99.90;;;;;;4861507;29;20451;-79
2023/04/10 03:25:05;;;;;;;38.22;22.25;;;5.40;99.90;;;;;;4877020;29;20046;-79
2023/04/10 03:27:33;;;;;;;38.95;21.95;;;5.40;99.90;;;;;;4861505;29;20053;-79
2023/04/10 03:30:01;;;;;;;43.22;22.77;;;5.40;99.90;;;;;;4873244;29;20057;-79
2023/04/10 03:32:29;;;;;;;45.22;23.85;;;5.40;99.90;;;;;;4843268;29;20065;-79
2023/04/10 03:34:57;;;;;;;41.50;23.30;;;5.40;99.90;;;;;;4858877;29;20061;-79
2023/04/10 03:37:26;;;;;;;41.10;22.52;;;5.50;99.90;;;;;;4843048;29;20053;-79
2023/04/10 03:39:53;;;;;;;43.10;23.48;;;5.40;99.90;;;;;;4861453;29;20038;-79
2023/04/10 03:42:19;;;;;;;41.92;22.95;;;5.40;99.90;;;;;;4876723;29;20045;-78
2023/04/10 03:44:46;;;;;;;40.08;22.88;;;5.50;99.90;;;;;;4877502;29;20056;-78
2023/04/10 03:47:13;;;;;;;43.47;22.88;;;5.40;99.90;;;;;;4865296;29;20042;-79
2023/04/10 03:49:39;;;;;;;40.10;22.75;;;5.40;99.90;;;;;;4880027;29;20041;-79
2023/04/10 03:52:06;;;;;;;41.55;22.52;;;5.40;99.90;;;;;;4864878;29;20502;-79
2023/04/10 03:54:33;;;;;;;42.00;22.13;;;5.50;99.90;;;;;;4864863;29;20503;-79
2023/04/10 03:57:00;;;;;;;40.83;22.00;;;5.40;99.90;;;;;;4880432;29;20132;-79
2023/04/10 03:59:27;;;;;;;42.35;22.15;;;5.40;99.90;;;;;;4864715;29;20368;-79
2023/04/10 04:01:53;;;;;;;39.20;21.92;;;5.40;99.90;;;;;;4880209;29;20102;-79
2023/04/10 04:04:20;;;;;;;41.78;22.98;;;5.40;99.90;;;;;;4895447;29;20054;-79
2023/04/10 04:06:47;;;;;;;40.05;22.65;;;5.40;99.90;;;;;;4864574;29;20056;-79
2023/04/10 04:09:14;;;;;;;41.38;21.38;;;5.40;99.90;;;;;;4879599;29;20114;-79
2023/04/10 04:11:41;;;;;;;39.17;21.75;;;5.40;99.90;;;;;;4849652;29;20049;-79
2023/04/10 04:14:08;;;;;;;39.92;22.42;;;5.40;99.90;;;;;;4864612;29;20059;-79
2023/04/10 04:16:37;;;;;;;38.28;22.67;;;5.40;99.90;;;;;;4879575;29;20128;-79
2023/04/10 04:19:04;;;;;;;40.13;22.10;;;5.40;99.90;;;;;;4849578;29;20065;-79
2023/04/10 04:21:30;;;;;;;39.83;21.75;;;5.40;99.90;;;;;;4879408;29;20483;-79
2023/04/10 04:23:57;;;;;;;42.05;21.67;;;5.40;99.90;;;;;;4849336;29;20514;-78
2023/04/10 04:26:25;;;;;;;36.80;20.58;;;5.40;99.90;;;;;;4879387;29;20529;-79
2023/04/10 04:28:51;;;;;;;40.47;23.13;;;5.40;99.90;;;;;;4864087;29;20499;-78
2023/04/10 04:31:18;;;;;;;38.75;21.83;;;5.50;99.90;;;;;;4863989;29;20056;-79
2023/04/10 04:33:45;;;;;;;38.00;21.83;;;5.70;99.90;;;;;;4876220;29;20042;-79
2023/04/10 04:36:11;;;;;;;41.13;21.33;;;5.50;99.90;;;;;;4861146;29;20057;-79
2023/04/10 04:38:38;;;;;;;43.15;22.65;;;5.60;99.90;;;;;;4830585;29;20081;-79
2023/04/10 04:41:05;;;;;;;41.60;22.30;;;5.60;99.90;;;;;;4845395;29;20132;-79
2023/04/10 04:43:31;;;;;;;36.65;20.60;;;5.60;99.90;;;;;;4881974;29;20041;-79
2023/04/10 04:45:58;;;;;;;41.40;22.20;;;5.70;99.90;;;;;;4863777;29;20049;-79
2023/04/10 04:48:25;;;;;;;36.60;21.13;;;5.70;99.90;;;;;;4863365;29;20045;-79
2023/04/10 04:50:51;;;;;;;39.97;22.27;;;5.70;99.90;;;;;;4879563;29;20042;-79
2023/04/10 04:53:18;;;;;;;39.95;21.80;;;5.80;99.90;;;;;;4863331;29;20049;-79
2023/04/10 04:55:45;;;;;;;38.80;21.25;;;5.70;99.90;;;;;;4848635;29;20089;-79
2023/04/10 04:58:11;;;;;;;37.75;20.63;;;5.80;99.90;;;;;;4864155;29;20049;-79
2023/04/10 05:00:38;;;;;;;38.78;21.55;;;5.80;99.90;;;;;;4878894;29;20108;-79
2023/04/10 05:03:05;;;;;;;37.47;20.55;;;5.80;99.90;;;;;;4863722;29;20042;-79
2023/04/10 05:05:32;;;;;;;36.33;20.00;;;5.90;99.90;;;;;;4878403;29;20060;-79
2023/04/10 05:07:59;;;;;;;35.30;20.48;;;5.90;99.90;;;;;;4878249;29;20418;-79
2023/04/10 05:10:26;;;;;;;39.55;21.38;;;5.90;99.90;;;;;;4911688;29;20510;-78
2023/04/10 05:12:52;;;;;;;36.38;20.23;;;5.90;99.90;;;;;;4881619;29;20049;-79
2023/04/10 05:15:19;;;;;;;38.65;20.35;;;6.00;99.90;;;;;;4873741;29;20048;-79
2023/04/10 05:17:49;;;;;;;38.67;20.77;;;6.10;99.90;;;;;;4863192;29;20060;-79
2023/04/10 05:20:16;;;;;;;35.90;19.88;;;6.00;99.90;;;;;;4863745;29;20049;-79
2023/04/10 05:22:43;;;;;;;36.20;21.23;;;6.10;99.90;;;;;;4863385;29;20406;-79
2023/04/10 05:25:10;;;;;;;37.53;20.17;;;6.20;99.90;;;;;;4893416;29;20052;-79
2023/04/10 05:27:36;;;;;;;38.75;21.13;;;6.20;99.90;;;;;;4878162;29;20094;-79
2023/04/10 05:30:03;;;;;;;37.15;21.08;;;6.30;99.90;;;;;;4863106;29;20125;-79
2023/04/10 05:32:30;;;;;;;38.47;20.95;;;6.30;99.90;;;;;;4862931;29;20849;-79
2023/04/10 05:34:57;;;;;;;40.10;20.23;;;6.30;99.90;;;;;;4862685;29;20475;-79
2023/04/10 05:37:23;;;;;;;35.10;19.90;;;6.40;99.90;;;;;;4874751;29;20519;-79
2023/04/10 05:39:50;;;;;;;36.65;20.27;;;6.40;99.90;;;;;;4859664;29;20046;-79
2023/04/10 05:42:17;;;;;;;37.05;20.65;;;6.50;99.90;;;;;;4844655;29;20049;-79
2023/04/10 05:44:44;;;;;;;38.70;21.83;;;6.50;99.90;;;;;;4844523;29;20056;-79
2023/04/10 05:47:11;;;;;;;37.20;21.25;;;6.60;99.90;;;;;;4854185;29;20045;-79
2023/04/10 05:49:37;;;;;;;34.88;19.23;;;6.70;99.90;;;;;;4877791;29;20049;-79
2023/04/10 05:52:04;;;;;;;35.45;19.98;;;6.70;99.90;;;;;;4862860;29;20092;-79
2023/04/10 05:54:31;;;;;;;38.67;21.05;;;6.80;99.90;;;;;;4893093;29;20046;-79
2023/04/10 05:56:57;;;;;;;35.50;20.55;;;6.90;99.90;;;;;;4877947;29;20041;-78
2023/04/10 05:59:24;;;;;;;35.78;20.48;;;6.90;99.90;;;;;;4878274;29;20118;-79
2023/04/10 06:01:51;;;;;;;35.25;20.17;;;7.00;99.90;;;;;;4862633;29;20101;-79
2023/04/10 06:04:20;;;;;;;35.67;20.52;;;7.10;99.90;;;;;;4878198;29;20114;-79
2023/04/10 06:06:46;;;;;;;36.58;21.00;;;7.10;99.90;;;;;;4877847;29;20559;-79
2023/04/10 06:09:13;;;;;;;36.60;20.55;;;7.20;99.90;;;;;;4858590;29;20053;-79
2023/04/10 06:11:40;;;;;;;36.03;21.13;;;7.20;99.90;;;;;;4859577;29;20048;-79
2023/04/10 06:14:06;;;;;;;35.05;20.38;;;7.20;99.90;;;;;;4874297;29;20053;-79
2023/04/10 06:16:33;;;;;;;36.90;21.17;;;7.20;99.90;;;;;;4859313;29;20049;-79
2023/04/10 06:19:00;;;;;;;37.33;20.98;;;7.20;99.90;;;;;;4874090;29;20080;-79
2023/04/10 06:21:27;;;;;;;34.40;20.27;;;7.20;99.90;;;;;;4859339;29;20053;-79
2023/04/10 06:23:54;;;;;;;38.00;20.88;;;7.30;99.90;;;;;;4873957;29;20080;-79
2023/04/10 06:26:20;;;;;;;39.70;21.45;;;7.30;99.90;;;;;;4859052;29;20053;-79
2023/04/10 06:28:47;;;;;;;40.22;21.52;;;7.40;99.90;;;;;;4865367;29;20053;-79
2023/04/10 06:31:14;;;;;;;38.63;21.67;;;7.40;99.90;;;;;;4896922;29;20502;-79
2023/04/10 06:33:41;;;;;;;36.70;20.90;;;7.50;99.90;;;;;;4862684;29;20049;-79
2023/04/10 06:36:07;;;;;;;34.67;20.85;;;7.50;99.90;;;;;;4877330;29;20193;-79
2023/04/10 06:38:36;;;;;;;35.65;20.75;;;7.70;99.90;;;;;;4877278;29;20092;-79
2023/04/10 06:41:05;;;;;;;36.63;20.17;;;7.80;99.90;;;;;;4862012;29;20611;-79
2023/04/10 06:43:35;;;;;;;36.92;21.65;;;7.90;99.90;;;;;;4877327;29;20056;-79
2023/04/10 06:46:03;;;;;;;38.13;21.30;;;8.00;99.90;;;;;;4876787;29;20045;-79
2023/04/10 06:48:31;;;;;;;33.75;19.65;;;8.10;99.90;;;;;;4892354;29;20050;-79
2023/04/10 06:50:59;;;;;;;36.35;21.38;;;8.10;99.90;;;;;;4861888;29;20033;-79
2023/04/10 06:53:26;;;;;;;36.45;20.13;;;8.20;99.90;;;;;;4877126;29;20049;-81
2023/04/10 06:55:53;;;;;;;32.80;20.38;;;8.30;99.90;;;;;;4861867;29;20419;-80
2023/04/10 06:58:20;;;;;;;36.05;20.85;;;8.30;99.90;;;;;;4876970;29;20098;-80
2023/04/10 07:00:46;;;;;;;37.25;21.13;;;8.50;99.90;;;;;;4873709;29;20044;-80
2023/04/10 07:03:13;;;;;;;34.35;19.63;;;8.50;99.90;;;;;;4843111;29;20160;-77
2023/04/10 07:05:40;;;;;;;34.10;20.77;;;8.60;99.90;;;;;;4859088;29;20053;-81
2023/04/10 07:08:07;;;;;;;35.83;21.25;;;8.60;99.90;;;;;;4858426;29;20052;-81
2023/04/10 07:10:34;;;;;;;33.05;19.52;;;8.60;99.90;;;;;;4844022;29;20128;-81
2023/04/10 07:13:01;;;;;;;37.50;21.23;;;8.70;99.90;;;;;;4828107;29;20133;-81
2023/04/10 07:15:27;;;;;;;31.63;18.50;;;8.80;99.90;;;;;;4843711;29;20128;-81
2023/04/10 07:17:55;;;;;;;35.00;19.67;;;8.90;99.90;;;;;;4843093;29;20125;-80
2023/04/10 07:20:21;;;;;;;36.65;19.48;;;9.00;99.90;;;;;;4860269;29;20054;-80
2023/04/10 07:22:48;;;;;;;32.78;19.38;;;9.10;99.90;;;;;;4877671;29;20052;-80
2023/04/10 07:25:15;;;;;;;36.22;20.00;;;9.30;99.90;;;;;;4880287;29;20041;-79
2023/04/10 07:27:42;;;;;;;37.05;20.33;;;9.50;99.90;;;;;;4880658;29;20053;-80
2023/04/10 07:30:10;;;;;;;34.55;19.95;;;9.70;99.90;;;;;;4880160;29;20819;-79
2023/04/10 07:32:38;;;;;;;32.75;19.83;;;9.80;99.90;;;;;;4895321;29;20099;-80
2023/04/10 07:35:06;;;;;;;33.53;18.83;;;9.90;99.90;;;;;;4863134;29;20078;-79
2023/04/10 07:37:32;;;;;;;32.67;19.13;;;9.90;99.90;;;;;;4880396;29;20045;-80
2023/04/10 07:40:01;;;;;;;33.67;18.45;;;9.90;99.90;;;;;;4864863;29;20097;-80
2023/04/10 07:42:27;;;;;;;32.28;19.05;;;9.80;99.90;;;;;;4869140;29;20053;-80
2023/04/10 07:44:54;;;;;;;33.55;19.33;;;9.90;99.90;;;;;;4875559;29;20080;-79
2023/04/10 07:47:21;;;;;;;30.67;18.05;;;10.00;99.90;;;;;;4866893;29;20156;-80
2023/04/10 07:49:48;;;;;;;29.92;17.98;;;10.10;99.90;;;;;;4880314;29;20634;-80
2023/04/10 07:52:15;;;;;;;29.05;17.52;;;10.10;99.90;;;;;;4864887;29;20046;-80
2023/04/10 07:54:41;;;;;;;29.67;16.85;;;10.20;99.90;;;;;;4880138;29;20038;-80
2023/04/10 07:57:08;;;;;;;28.83;16.90;;;10.40;99.90;;;;;;4861335;29;20475;-80
2023/04/10 07:59:35;;;;;;;30.58;17.27;;;10.50;99.90;;;;;;4846404;29;20085;-80
2023/04/10 08:02:01;;;;;;;28.73;17.15;;;10.70;99.90;;;;;;4861075;29;20082;-80
2023/04/10 08:04:28;;;;;;;28.48;15.50;;;10.80;99.90;;;;;;4846306;29;20042;-80
2023/04/10 08:06:55;;;;;;;24.77;14.52;;;11.00;99.90;;;;;;4845832;29;20042;-80
2023/04/10 08:09:21;;;;;;;28.85;15.55;;;11.00;99.90;;;;;;4876475;29;20085;-80
2023/04/10 08:11:48;;;;;;;23.63;14.48;;;11.10;99.90;;;;;;4876714;29;20054;-80
2023/04/10 08:14:15;;;;;;;24.95;14.32;;;11.20;99.90;;;;;;4861335;29;20128;-80
2023/04/10 08:16:41;;;;;;;23.60;14.00;;;11.30;99.90;;;;;;4881932;29;20049;-81
2023/04/10 08:19:08;;;;;;;23.08;13.65;;;11.50;99.90;;;;;;4864396;29;20072;-81
2023/04/10 08:21:35;;;;;;;22.17;13.60;;;11.60;99.90;;;;;;4864242;29;20049;-81
2023/04/10 08:24:03;;;;;;;20.85;12.25;;;11.80;99.90;;;;;;4848978;29;20045;-81
2023/04/10 08:26:30;;;;;;;22.58;13.10;;;12.00;99.90;;;;;;4879257;29;20623;-81
2023/04/10 08:28:59;;;;;;;19.30;12.07;;;12.20;99.90;;;;;;4879224;29;20486;-80
2023/04/10 08:31:27;;;;;;;21.13;12.70;;;12.40;99.90;;;;;;4878907;29;20063;-79
2023/04/10 08:33:54;;;;;;;19.63;12.30;;;12.60;99.90;;;;;;4894200;29;20037;-79
2023/04/10 08:36:21;;;;;;;18.13;10.98;;;12.70;99.90;;;;;;4879346;29;20574;-80
2023/04/10 08:38:48;;;;;;;22.15;12.25;;;12.80;99.90;;;;;;4879055;29;20077;-80
2023/04/10 08:41:17;;;;;;;19.95;11.65;;;12.90;99.90;;;;;;4879450;29;20041;-81
2023/04/10 08:43:48;;;;;;;19.13;11.13;;;13.00;99.90;;;;;;4865330;29;20456;-85
2023/04/10 08:46:15;;;;;;;17.65;10.63;;;13.10;99.90;;;;;;4879481;29;20045;-85
2023/04/10 08:48:54;;;;;;;18.13;10.45;;;13.10;99.90;;;;;;4861081;29;20531;-85
2023/04/10 08:51:25;;;;;;;17.50;10.65;;;13.00;99.90;;;;;;4875970;29;20042;-86
2023/04/10 08:53:59;;;;;;;17.70;10.98;;;13.00;99.90;;;;;;4876683;29;20034;-86
2023/04/10 08:56:26;;;;;;;16.80;10.00;;;13.00;99.90;;;;;;4876684;29;20154;-86
2023/04/10 08:58:53;;;;;;;17.73;10.50;;;13.00;99.90;;;;;;4848956;29;20089;-85
2023/04/10 09:01:20;;;;;;;16.88;9.57;;;13.00;99.90;;;;;;4863991;29;20510;-86
2023/04/10 09:03:47;;;;;;;16.48;9.77;;;13.00;99.90;;;;;;4864026;29;20108;-85
2023/04/10 09:06:14;;;;;;;15.55;10.23;;;13.10;99.90;;;;;;4864234;29;20098;-85
2023/04/10 09:08:41;;;;;;;17.02;10.60;;;13.30;99.90;;;;;;4863865;29;20080;-86
2023/04/10 09:11:08;;;;;;;16.48;9.68;;;13.40;99.90;;;;;;4848759;29;20113;-86
2023/04/10 09:13:40;;;;;;;16.83;9.63;;;13.50;99.90;;;;;;4848584;29;20494;-85
2023/04/10 09:16:08;;;;;;;14.82;9.45;;;13.60;99.90;;;;;;4863945;29;20561;-85
2023/04/10 09:18:45;;;;;;;16.15;10.05;;;13.70;99.90;;;;;;4894489;29;20114;-85
2023/04/10 09:21:17;;;;;;;14.38;9.63;;;13.70;99.90;;;;;;4847475;29;20432;-85
2023/04/10 09:23:45;;;;;;;14.75;9.52;;;13.70;99.90;;;;;;4860431;29;20038;-85
2023/04/10 09:26:25;;;;;;;15.80;9.60;;;13.80;99.90;;;;;;4845648;29;20041;-85
2023/04/10 09:29:00;;;;;;;17.25;9.43;;;13.80;99.90;;;;;;4845128;29;20503;-85
2023/04/10 09:31:34;;;;;;;16.10;9.48;;;13.90;99.90;;;;;;4875577;29;20077;-85
2023/04/10 09:34:32;;;;;;;15.43;9.18;;;13.90;99.90;;;;;;4863657;29;20038;-85
2023/04/10 09:37:00;;;;;;;15.10;8.85;;;13.90;99.90;;;;;;4894146;29;20045;-85
2023/04/10 09:39:41;;;;;;;13.70;8.50;;;14.00;99.90;;;;;;4878662;29;20425;-85
2023/04/10 09:42:10;;;;;;;12.95;8.07;;;14.10;99.90;;;;;;4877918;29;20137;-85
2023/04/10 09:44:38;;;;;;;17.25;8.70;;;14.20;99.90;;;;;;4879243;29;20045;-86
2023/04/10 09:47:14;;;;;;;15.38;8.95;;;14.30;99.90;;;;;;4863130;29;20050;-85
2023/04/10 09:49:49;;;;;;;14.13;8.23;;;14.40;99.90;;;;;;4878371;29;20049;-85
2023/04/10 09:52:25;;;;;;;15.38;8.20;;;14.60;99.90;;;;;;4878907;29;20041;-85
2023/04/10 09:54:54;;;;;;;12.45;8.15;;;14.70;99.90;;;;;;4887159;29;20102;-85
2023/04/10 09:57:22;;;;;;;13.57;8.00;;;14.90;99.90;;;;;;4877949;29;20475;-87
2023/04/10 09:59:51;;;;;;;15.15;8.57;;;15.00;99.90;;;;;;4876881;29;20713;-85
2023/04/10 10:02:19;;;;;;;12.70;8.05;;;15.00;99.90;;;;;;4905879;29;20045;-85
2023/04/10 10:04:47;;;;;;;14.23;8.65;;;15.10;99.90;;;;;;4856610;29;20045;-86
2023/04/10 10:07:16;;;;;;;13.55;8.27;;;15.00;99.90;;;;;;4877900;29;20049;-85
2023/04/10 10:09:44;;;;;;;14.02;8.00;;;15.00;99.90;;;;;;4878070;29;20069;-85
2023/04/10 10:12:14;;;;;;;12.82;7.97;;;15.00;99.90;;;;;;4878073;29;20068;-86
2023/04/10 10:14:56;;;;;;;11.70;7.13;;;15.10;99.90;;;;;;4878129;29;20408;-86
2023/04/10 10:17:30;;;;;;;13.02;7.30;;;15.10;99.30;;;;;;4878023;29;20046;-86
2023/04/10 10:20:04;;;;;;;11.93;7.32;;;15.20;99.60;;;;;;4877846;29;20076;-85
2023/04/10 10:22:31;;;;;;;13.52;7.53;;;15.30;99.90;;;;;;4877502;29;20158;-85
2023/04/10 10:24:59;;;;;;;11.43;6.88;;;15.40;99.90;;;;;;4847398;29;20049;-84
2023/04/10 10:27:29;;;;;;;10.40;6.70;;;15.40;99.80;;;;;;4862519;29;20041;-86
2023/04/10 10:29:59;;;;;;;11.13;6.75;;;15.50;99.90;;;;;;4877520;29;20531;-85
2023/04/10 10:32:28;;;;;;;13.18;6.35;;;15.50;98.60;;;;;;4877948;29;20098;-86
2023/04/10 10:34:56;;;;;;;10.65;6.30;;;15.70;99.20;;;;;;4862633;29;20107;-85
2023/04/10 10:37:23;;;;;;;11.15;7.18;;;15.70;99.70;;;;;;4862642;29;20515;-86
2023/04/10 10:40:02;;;;;;;11.07;6.95;;;15.80;99.70;;;;;;4859499;29;20050;-86
2023/04/10 10:42:51;;;;;;;12.27;6.55;;;15.90;98.60;;;;;;4874540;29;20419;-86
2023/04/10 10:45:47;;;;;;;10.40;6.65;;;15.90;98.50;;;;;;4890551;29;20498;-86
2023/04/10 10:48:14;;;;;;;9.75;6.07;;;16.00;98.30;;;;;;4873221;29;20050;-86
2023/04/10 10:50:59;;;;;;;13.05;7.15;;;16.00;97.70;;;;;;4863351;29;20053;-86
2023/04/10 10:53:44;;;;;;;10.57;6.85;;;16.00;97.80;;;;;;4862637;29;20402;-86
2023/04/10 10:56:34;;;;;;;11.10;7.35;;;16.10;97.70;;;;;;4859775;29;20053;-86
2023/04/10 10:59:02;;;;;;;10.57;6.60;;;16.20;97.80;;;;;;4854939;29;20049;-86
2023/04/10 11:01:28;;;;;;;11.45;6.85;;;16.20;98.40;;;;;;4859541;29;20050;-85
2023/04/10 11:03:55;;;;;;;11.57;6.45;;;16.30;97.90;;;;;;4859479;29;20053;-86
2023/04/10 11:06:47;;;;;;;10.40;6.20;;;16.30;97.80;;;;;;4859140;29;20260;-86
2023/04/10 11:09:46;;;;;;;12.27;6.53;;;16.30;96.80;;;;;;4859321;29;20137;-86
2023/04/10 11:12:13;;;;;;;10.40;6.40;;;16.30;96.90;;;;;;4859632;29;20045;-87
2023/04/10 11:14:42;;;;;;;9.32;5.32;;;16.20;97.80;;;;;;4859317;29;20046;-86
2023/04/10 11:17:10;;;;;;;9.70;5.85;;;16.30;97.90;;;;;;4892227;29;20056;-87
2023/04/10 11:19:58;;;;;;;8.18;5.32;;;16.20;96.40;;;;;;4846859;29;20104;-86
2023/04/10 11:22:26;;;;;;;9.40;5.55;;;16.20;96.70;;;;;;4877283;29;20117;-86
2023/04/10 11:24:58;;;;;;;10.07;5.50;;;16.10;97.50;;;;;;4877562;29;20057;-86
2023/04/10 11:27:48;;;;;;;10.20;5.63;;;16.00;96.00;;;;;;4861743;29;20045;-86
2023/04/10 11:30:34;;;;;;;7.70;5.03;;;16.00;96.40;;;;;;4862987;29;20072;-86
2023/04/10 11:33:03;;;;;;;8.90;4.97;;;15.90;95.90;;;;;;4862848;29;20045;-85
2023/04/10 11:35:30;;;;;;;8.68;5.30;;;16.00;97.40;;;;;;4877472;29;20046;-86
2023/04/10 11:38:16;;;;;;;7.93;5.20;;;16.00;97.50;;;;;;4877119;29;20041;-86
2023/04/10 11:41:01;;;;;;;8.50;5.13;;;16.00;95.80;;;;;;4877747;29;20077;-84
2023/04/10 11:43:27;;;;;;;8.07;4.68;;;16.10;96.30;;;;;;4877260;29;20087;-85
2023/04/10 11:46:02;;;;;;;8.85;4.88;;;16.10;97.20;;;;;;4865097;29;20072;-85
2023/04/10 11:48:30;;;;;;;9.60;5.03;;;16.20;97.00;;;;;;4878374;29;20633;-84
2023/04/10 11:50:57;;;;;;;7.93;4.95;;;16.20;96.90;;;;;;4876842;29;20354;-85
2023/04/10 11:53:23;;;;;;;6.80;4.75;;;16.30;96.60;;;;;;4861378;29;20049;-85
2023/04/10 11:55:50;;;;;;;7.70;4.95;;;16.20;96.50;;;;;;4861603;29;20045;-85
2023/04/10 11:58:25;;;;;;;7.03;4.60;;;16.20;96.80;;;;;;4859907;29;20037;-85
2023/04/10 12:01:03;;;;;;;6.95;4.53;;;16.20;96.50;;;;;;4858458;29;20046;-85
2023/04/10 12:03:38;;;;;;;6.88;4.35;;;16.20;96.40;;;;;;4873294;29;20042;-85
2023/04/10 12:06:12;;;;;;;8.25;4.75;;;16.30;96.50;;;;;;4874557;29;20054;-85
2023/04/10 12:08:49;;;;;;;9.05;4.20;;;16.30;96.00;;;;;;4876488;29;20061;-85
2023/04/10 12:11:21;;;;;;;7.57;4.47;;;16.40;96.50;;;;;;4876812;29;20045;-84
2023/04/10 12:13:53;;;;;;;6.80;4.28;;;16.30;96.10;;;;;;4877331;29;20452;-89
2023/04/10 12:16:20;;;;;;;6.90;3.92;;;16.30;95.70;;;;;;4877827;29;20046;-85
2023/04/10 12:18:48;;;;;;;7.28;3.90;;;16.20;95.80;;;;;;4864124;29;20055;-85
2023/04/10 12:21:15;;;;;;;6.25;4.15;;;16.30;96.40;;;;;;4864617;29;20045;-86
2023/04/10 12:23:42;;;;;;;6.70;3.90;;;16.30;96.70;;;;;;4864583;29;20050;-84
2023/04/10 12:26:14;;;;;;;6.25;3.92;;;16.30;96.20;;;;;;4880108;29;20077;-85
2023/04/10 12:28:49;;;;;;;5.47;3.53;;;16.40;96.20;;;;;;4879539;29;20057;-85
2023/04/10 12:31:16;;;;;;;7.32;3.28;;;16.40;95.70;;;;;;4879637;29;20093;-85
2023/04/10 12:33:46;;;;;;;5.88;3.50;;;16.40;95.90;;;;;;4879584;29;20127;-85
2023/04/10 12:36:27;;;;;;;5.88;3.40;;;16.50;95.90;;;;;;4879631;29;20041;-85
2023/04/10 12:38:56;;;;;;;5.97;3.28;;;16.50;95.10;;;;;;4880492;29;20041;-85
2023/04/10 12:41:30;;;;;;;5.45;3.42;;;16.60;95.30;;;;;;4879386;29;20200;-84
2023/04/10 12:44:11;;;;;;;7.03;3.20;;;16.70;95.30;;;;;;4879884;29;20042;-85
2023/04/10 12:46:40;;;;;;;5.90;3.30;;;16.70;94.90;;;;;;4879583;29;20085;-85
2023/04/10 12:49:13;;;;;;;7.50;3.38;;;16.80;95.70;;;;;;4879270;29;20053;-85